Time;durP1;ratioP1;P1;durP2;ratioP2;P2;SDS_P1;SDS_P2;PMS_P1;PMS_P2;Temp;Humidity;BMP_temperature;BMP_pressure;BME280_temperature;BME280_humidity;BME280_pressure;Samples;Min_cycle;Max_cycle;Signal;HPM_P1;HPM_P2
2020/12/28 00:01:30;;;;;;;26.73;18.43;;;3.70;93.30;;;;;;4341383;32;20235;-64
2020/12/28 00:03:56;;;;;;;22.93;17.53;;;3.60;93.40;;;;;;4341907;33;20248;-64
2020/12/28 00:06:22;;;;;;;21.53;16.30;;;3.60;93.40;;;;;;4341829;33;20223;-64
2020/12/28 00:08:48;;;;;;;20.80;15.43;;;3.60;93.40;;;;;;4344076;33;20569;-64
2020/12/28 00:11:18;;;;;;;22.13;16.37;;;3.50;93.40;;;;;;4337743;33;20232;-64
2020/12/28 00:13:45;;;;;;;24.70;17.03;;;3.50;93.30;;;;;;4340587;32;20153;-65
2020/12/28 00:16:12;;;;;;;25.83;17.43;;;3.40;93.30;;;;;;4339777;33;20229;-66
2020/12/28 00:18:39;;;;;;;25.27;18.70;;;3.40;93.50;;;;;;4342993;33;20205;-65
2020/12/28 00:21:06;;;;;;;25.97;18.93;;;3.50;93.80;;;;;;4329443;33;20177;-66
2020/12/28 00:23:32;;;;;;;29.47;20.03;;;3.50;93.70;;;;;;4342391;32;20170;-66
2020/12/28 00:25:59;;;;;;;29.80;20.47;;;3.50;93.70;;;;;;4341861;33;20220;-66
2020/12/28 00:28:25;;;;;;;27.97;18.90;;;3.40;93.60;;;;;;4344249;32;20570;-64
2020/12/28 00:30:52;;;;;;;25.00;17.20;;;3.40;93.50;;;;;;4340534;33;20274;-63
2020/12/28 00:33:19;;;;;;;29.93;19.60;;;3.30;93.40;;;;;;4342537;32;20207;-64
2020/12/28 00:35:45;;;;;;;27.20;19.53;;;3.30;93.40;;;;;;4333249;32;20149;-63
2020/12/28 00:38:14;;;;;;;33.30;20.77;;;3.20;93.60;;;;;;4335586;32;20171;-63
2020/12/28 00:40:42;;;;;;;32.23;20.53;;;3.30;93.70;;;;;;4342056;32;20216;-66
2020/12/28 00:43:10;;;;;;;31.00;21.40;;;3.30;94.00;;;;;;4341688;33;20148;-63
2020/12/28 00:45:37;;;;;;;31.70;21.70;;;3.30;94.00;;;;;;4343374;32;20550;-64
2020/12/28 00:48:04;;;;;;;33.23;21.57;;;3.30;93.90;;;;;;4338750;33;20271;-64
2020/12/28 00:50:32;;;;;;;36.77;22.37;;;3.30;93.90;;;;;;4330586;32;20597;-66
2020/12/28 00:52:59;;;;;;;35.87;22.33;;;3.30;93.90;;;;;;4339152;33;20224;-66
2020/12/28 00:55:25;;;;;;;38.63;22.50;;;3.30;93.90;;;;;;4327770;33;20248;-65
2020/12/28 00:57:54;;;;;;;34.47;23.33;;;3.30;93.80;;;;;;4339166;33;20247;-64
2020/12/28 01:00:20;;;;;;;36.63;21.97;;;3.20;93.80;;;;;;4333455;33;20232;-65
2020/12/28 01:02:49;;;;;;;35.20;22.53;;;3.20;93.80;;;;;;4340217;32;20692;-65
2020/12/28 01:05:18;;;;;;;34.37;22.23;;;3.20;93.80;;;;;;4327236;33;20216;-66
2020/12/28 01:07:44;;;;;;;30.13;20.77;;;3.10;93.70;;;;;;4338655;32;20220;-66
2020/12/28 01:10:13;;;;;;;31.93;22.07;;;3.20;93.80;;;;;;4338624;32;20306;-64
2020/12/28 01:12:39;;;;;;;33.20;21.80;;;3.10;93.70;;;;;;4343267;32;20505;-64
2020/12/28 01:15:07;;;;;;;32.07;21.70;;;3.10;93.70;;;;;;4339212;32;20224;-65
2020/12/28 01:17:33;;;;;;;51.03;26.43;;;3.10;93.80;;;;;;4339739;33;20247;-64
2020/12/28 01:19:59;;;;;;;31.10;21.23;;;3.10;93.80;;;;;;4344385;33;20157;-67
2020/12/28 01:22:37;;;;;;;35.47;21.83;;;3.00;93.80;;;;;;4335933;32;20211;-66
2020/12/28 01:25:04;;;;;;;32.83;21.07;;;3.00;93.70;;;;;;4344735;33;20198;-64
2020/12/28 01:27:30;;;;;;;35.77;22.13;;;3.00;93.70;;;;;;4341104;32;20218;-64
2020/12/28 01:29:56;;;;;;;44.40;24.37;;;3.00;93.70;;;;;;4345701;33;20248;-64
2020/12/28 01:32:22;;;;;;;36.67;22.33;;;3.00;93.70;;;;;;4342054;32;20216;-63
2020/12/28 01:34:49;;;;;;;35.20;22.33;;;2.90;93.80;;;;;;4331483;33;20150;-68
2020/12/28 01:37:17;;;;;;;34.70;22.40;;;2.90;93.80;;;;;;4333230;33;20249;-66
2020/12/28 01:39:49;;;;;;;37.43;22.73;;;2.90;93.70;;;;;;4344434;33;20157;-66
2020/12/28 01:42:18;;;;;;;36.57;22.90;;;2.90;93.80;;;;;;4343094;32;20266;-66
2020/12/28 01:44:44;;;;;;;42.53;24.27;;;2.80;93.60;;;;;;4341027;32;20169;-66
2020/12/28 01:47:10;;;;;;;39.97;23.60;;;2.80;93.70;;;;;;4343691;32;20212;-64
2020/12/28 01:49:37;;;;;;;40.57;24.90;;;3.00;94.30;;;;;;4343510;32;20264;-65
2020/12/28 01:52:04;;;;;;;38.43;24.63;;;3.20;94.70;;;;;;4336203;33;20604;-66
2020/12/28 01:54:31;;;;;;;40.30;23.17;;;3.40;95.10;;;;;;4344635;33;20236;-66
2020/12/28 01:56:59;;;;;;;46.93;26.43;;;3.50;95.20;;;;;;4337740;33;20256;-66
2020/12/28 01:59:25;;;;;;;41.57;25.50;;;3.70;95.30;;;;;;4343412;33;20214;-64
2020/12/28 02:01:53;;;;;;;40.20;24.77;;;3.70;95.30;;;;;;4342104;33;21121;-65
2020/12/28 02:04:20;;;;;;;58.07;29.90;;;3.80;95.30;;;;;;4331224;33;20710;-65
2020/12/28 02:06:47;;;;;;;47.03;26.73;;;3.80;95.50;;;;;;4339245;33;20218;-67
2020/12/28 02:09:13;;;;;;;45.50;26.73;;;3.90;95.50;;;;;;4343753;33;20235;-64
2020/12/28 02:11:40;;;;;;;59.63;32.23;;;4.00;95.50;;;;;;4341345;33;20618;-63
2020/12/28 02:14:07;;;;;;;53.93;28.67;;;4.10;95.50;;;;;;4344781;33;20699;-64
2020/12/28 02:16:34;;;;;;;47.70;28.63;;;4.10;95.60;;;;;;4340043;32;20183;-63
2020/12/28 02:19:00;;;;;;;47.10;27.43;;;4.20;95.50;;;;;;4344393;32;20686;-65
2020/12/28 02:21:26;;;;;;;40.43;25.70;;;4.20;95.50;;;;;;4341052;32;20573;-66
2020/12/28 02:23:54;;;;;;;48.83;28.90;;;4.20;95.50;;;;;;4343621;33;20167;-65
2020/12/28 02:26:23;;;;;;;47.17;27.53;;;4.20;95.50;;;;;;4342380;32;20273;-64
2020/12/28 02:28:49;;;;;;;73.10;34.80;;;4.20;95.40;;;;;;4345318;33;20570;-65
2020/12/28 02:31:18;;;;;;;46.07;29.27;;;4.20;95.40;;;;;;4338201;33;20236;-63
2020/12/28 02:33:44;;;;;;;47.53;29.00;;;4.20;95.50;;;;;;4344468;32;20516;-64
2020/12/28 02:36:16;;;;;;;58.97;32.50;;;4.20;95.50;;;;;;4338039;33;20177;-64
2020/12/28 02:38:43;;;;;;;64.60;32.00;;;4.20;95.40;;;;;;4329520;33;20618;-64
2020/12/28 02:41:10;;;;;;;56.00;31.80;;;4.20;95.50;;;;;;4337301;33;20650;-65
2020/12/28 02:43:36;;;;;;;70.57;35.20;;;4.20;95.50;;;;;;4342612;33;20232;-65
2020/12/28 02:46:05;;;;;;;61.87;32.53;;;4.20;95.40;;;;;;4342473;33;20604;-62
2020/12/28 02:48:32;;;;;;;77.90;36.10;;;4.20;95.60;;;;;;4343090;33;20232;-65
2020/12/28 02:50:58;;;;;;;65.53;34.67;;;4.20;95.50;;;;;;4342079;33;20231;-64
2020/12/28 02:53:24;;;;;;;69.57;34.33;;;4.30;95.60;;;;;;4330287;33;20177;-65
2020/12/28 02:55:53;;;;;;;54.10;30.33;;;4.30;95.60;;;;;;4332202;32;20244;-64
2020/12/28 02:58:21;;;;;;;66.17;34.67;;;4.30;95.70;;;;;;4343118;33;20156;-66
2020/12/28 03:00:54;;;;;;;60.23;32.40;;;4.20;95.60;;;;;;4344313;33;20173;-67
2020/12/28 03:03:23;;;;;;;68.10;33.43;;;4.30;95.50;;;;;;4347307;33;20223;-65
2020/12/28 03:05:49;;;;;;;64.57;33.50;;;4.30;95.50;;;;;;4344267;33;20189;-65
2020/12/28 03:08:20;;;;;;;71.13;34.83;;;4.30;95.50;;;;;;4334039;32;20247;-66
2020/12/28 03:10:48;;;;;;;57.00;32.37;;;4.40;95.50;;;;;;4333592;33;20324;-65
2020/12/28 03:13:17;;;;;;;76.40;35.97;;;4.30;95.50;;;;;;4342670;33;20240;-65
2020/12/28 03:15:48;;;;;;;64.57;34.03;;;4.30;95.50;;;;;;4342930;32;20188;-63
2020/12/28 03:18:17;;;;;;;63.43;35.93;;;4.30;95.50;;;;;;4341005;32;20149;-63
2020/12/28 03:20:58;;;;;;;85.20;41.20;;;4.40;95.50;;;;;;4341033;33;20175;-64
2020/12/28 03:23:24;;;;;;;79.73;38.10;;;4.40;95.30;;;;;;4343911;33;20221;-64
2020/12/28 03:25:50;;;;;;;72.13;36.53;;;4.20;95.30;;;;;;4343075;32;20228;-65
2020/12/28 03:28:17;;;;;;;73.00;35.80;;;4.30;95.40;;;;;;4342345;32;20384;-65
2020/12/28 03:30:44;;;;;;;67.53;36.23;;;4.20;95.40;;;;;;4342169;32;20615;-67
2020/12/28 03:33:10;;;;;;;77.50;36.77;;;4.20;95.40;;;;;;4343519;33;20232;-65
2020/12/28 03:35:36;;;;;;;75.33;37.67;;;4.20;95.50;;;;;;4343455;33;20232;-66
2020/12/28 03:38:02;;;;;;;75.27;38.23;;;4.20;95.50;;;;;;4343150;32;20211;-67
2020/12/28 03:40:29;;;;;;;69.20;34.50;;;4.20;95.60;;;;;;4341530;33;20611;-65
2020/12/28 03:42:55;;;;;;;60.30;31.30;;;4.20;95.60;;;;;;4343157;33;20218;-66
2020/12/28 03:45:24;;;;;;;60.87;30.93;;;4.20;95.50;;;;;;4332572;33;20231;-66
2020/12/28 03:47:53;;;;;;;65.90;31.67;;;4.20;95.40;;;;;;4338595;33;20171;-66
2020/12/28 03:50:19;;;;;;;59.30;29.83;;;4.20;95.40;;;;;;4339290;33;20275;-65
2020/12/28 03:52:45;;;;;;;57.87;30.53;;;4.20;95.40;;;;;;4342799;33;20216;-64
2020/12/28 03:55:12;;;;;;;53.80;28.77;;;4.10;95.40;;;;;;4343369;32;20633;-66
2020/12/28 03:57:38;;;;;;;48.37;27.43;;;4.10;95.50;;;;;;4335472;33;20514;-64
2020/12/28 04:00:05;;;;;;;49.27;26.83;;;4.10;95.50;;;;;;4332321;32;20210;-64
2020/12/28 04:02:33;;;;;;;46.47;25.33;;;4.10;95.40;;;;;;4343657;32;20187;-64
2020/12/28 04:05:00;;;;;;;51.70;26.40;;;4.10;95.40;;;;;;4341922;33;20209;-65
2020/12/28 04:07:26;;;;;;;44.20;23.57;;;4.10;95.40;;;;;;4340985;33;20662;-66
2020/12/28 04:09:53;;;;;;;40.93;23.87;;;4.10;95.40;;;;;;4340234;33;20149;-64
2020/12/28 04:12:19;;;;;;;51.63;25.43;;;4.10;95.40;;;;;;4344047;33;20473;-66
2020/12/28 04:14:45;;;;;;;45.37;24.37;;;4.00;95.30;;;;;;4333197;33;20236;-64
2020/12/28 04:17:11;;;;;;;46.13;24.77;;;4.00;95.30;;;;;;4394177;32;20220;-65
2020/12/28 04:19:38;;;;;;;48.43;24.33;;;4.00;95.30;;;;;;4403002;32;20190;-66
2020/12/28 04:22:07;;;;;;;48.87;24.77;;;4.00;95.30;;;;;;4404980;32;20211;-64
2020/12/28 04:24:36;;;;;;;44.23;24.93;;;4.00;95.30;;;;;;4396724;32;20172;-64
2020/12/28 04:27:02;;;;;;;40.97;24.43;;;4.10;95.30;;;;;;4400454;32;20254;-66
2020/12/28 04:29:29;;;;;;;40.23;22.70;;;4.00;95.30;;;;;;4403117;32;20226;-65
2020/12/28 04:31:55;;;;;;;39.53;22.80;;;4.10;95.30;;;;;;4402860;32;20252;-65
2020/12/28 04:34:22;;;;;;;36.37;20.80;;;4.10;95.20;;;;;;4402314;32;20219;-64
2020/12/28 04:36:49;;;;;;;37.77;22.33;;;4.10;95.20;;;;;;4405710;32;20702;-66
2020/12/28 04:39:16;;;;;;;34.10;21.23;;;4.00;95.00;;;;;;4403402;32;20235;-66
2020/12/28 04:41:43;;;;;;;39.57;21.40;;;4.10;94.90;;;;;;4401387;32;20255;-66
2020/12/28 04:44:11;;;;;;;37.67;21.00;;;4.00;95.00;;;;;;4402084;32;20167;-66
2020/12/28 04:46:37;;;;;;;39.90;21.27;;;4.00;95.10;;;;;;4407950;32;20208;-64
2020/12/28 04:49:04;;;;;;;37.60;22.20;;;4.00;95.20;;;;;;4400829;32;20226;-65
2020/12/28 04:51:30;;;;;;;36.43;20.43;;;4.00;95.20;;;;;;4394399;32;20194;-66
2020/12/28 04:53:58;;;;;;;34.20;21.30;;;4.20;95.20;;;;;;4401811;32;20521;-65
2020/12/28 04:56:35;;;;;;;33.37;20.90;;;4.10;95.10;;;;;;4408459;32;20223;-66
2020/12/28 04:59:01;;;;;;;42.87;21.80;;;4.10;95.10;;;;;;4404437;32;20223;-64
2020/12/28 05:01:39;;;;;;;33.37;20.33;;;4.10;95.10;;;;;;4407063;32;20664;-65
2020/12/28 05:04:06;;;;;;;39.33;21.33;;;4.10;95.10;;;;;;4404468;32;20485;-66
2020/12/28 05:06:34;;;;;;;38.13;21.97;;;4.20;95.10;;;;;;4395736;32;20510;-66
2020/12/28 05:09:09;;;;;;;37.07;21.77;;;4.20;95.00;;;;;;4401686;32;20182;-64
2020/12/28 05:11:37;;;;;;;35.70;21.03;;;4.20;95.00;;;;;;4403642;32;20455;-64
2020/12/28 05:14:03;;;;;;;34.63;21.20;;;4.20;94.90;;;;;;4404889;32;20216;-64
2020/12/28 05:16:31;;;;;;;41.43;24.13;;;4.20;94.80;;;;;;4364975;32;20160;-67
2020/12/28 05:18:58;;;;;;;39.43;21.33;;;4.20;95.10;;;;;;4340533;33;20267;-65
2020/12/28 05:21:25;;;;;;;38.43;22.70;;;4.20;94.80;;;;;;4345191;32;20197;-65
2020/12/28 05:23:51;;;;;;;43.43;23.23;;;4.20;94.80;;;;;;4331872;33;20172;-65
2020/12/28 05:26:21;;;;;;;40.87;22.60;;;4.20;94.90;;;;;;4330083;33;20247;-65
2020/12/28 05:28:53;;;;;;;40.37;21.77;;;4.20;94.90;;;;;;4341711;32;20250;-66
2020/12/28 05:31:21;;;;;;;38.83;21.97;;;4.20;94.80;;;;;;4344341;32;20154;-66
2020/12/28 05:33:47;;;;;;;33.87;21.03;;;4.30;94.80;;;;;;4333717;32;20183;-65
2020/12/28 05:36:14;;;;;;;36.50;20.20;;;4.30;94.70;;;;;;4332375;33;20565;-64
2020/12/28 05:38:44;;;;;;;39.63;21.37;;;4.30;94.70;;;;;;4344189;32;20218;-66
2020/12/28 05:41:12;;;;;;;38.83;20.20;;;4.40;94.60;;;;;;4344688;32;20204;-64
2020/12/28 05:43:38;;;;;;;37.57;21.97;;;4.40;94.50;;;;;;4334597;33;20209;-67
2020/12/28 05:46:05;;;;;;;40.07;20.57;;;4.40;94.50;;;;;;4333393;32;20224;-67
2020/12/28 05:48:35;;;;;;;33.03;19.80;;;4.40;94.50;;;;;;4336470;32;20191;-67
2020/12/28 05:51:02;;;;;;;39.23;20.60;;;4.40;94.50;;;;;;4340025;33;20223;-65
2020/12/28 05:53:28;;;;;;;32.70;19.80;;;4.50;94.50;;;;;;4343856;33;20635;-64
2020/12/28 05:55:57;;;;;;;34.17;20.57;;;4.40;94.40;;;;;;4339048;33;20234;-67
2020/12/28 05:58:23;;;;;;;33.90;20.10;;;4.50;94.40;;;;;;4329850;33;20212;-65
2020/12/28 06:00:50;;;;;;;36.33;19.57;;;4.50;94.30;;;;;;4336117;33;20216;-65
2020/12/28 06:03:24;;;;;;;31.23;18.73;;;4.50;94.20;;;;;;4329347;32;20221;-65
2020/12/28 06:05:52;;;;;;;30.57;19.30;;;4.50;94.20;;;;;;4338136;33;20151;-65
2020/12/28 06:08:19;;;;;;;35.70;19.53;;;4.50;94.20;;;;;;4350098;32;20160;-64
2020/12/28 06:10:45;;;;;;;36.90;19.90;;;4.40;94.20;;;;;;4344559;33;20161;-67
2020/12/28 06:13:20;;;;;;;29.27;19.60;;;4.50;94.30;;;;;;4342852;32;20167;-68
2020/12/28 06:15:58;;;;;;;38.73;20.00;;;4.50;94.20;;;;;;4340716;33;20488;-66
2020/12/28 06:18:25;;;;;;;31.87;19.10;;;4.50;94.00;;;;;;4343798;33;20212;-65
2020/12/28 06:20:51;;;;;;;38.53;18.80;;;4.50;94.00;;;;;;4343100;33;20235;-67
2020/12/28 06:23:27;;;;;;;32.30;19.03;;;4.50;93.70;;;;;;4345298;33;20212;-68
2020/12/28 06:25:54;;;;;;;27.47;16.60;;;4.50;93.40;;;;;;4331062;33;20185;-65
2020/12/28 06:28:29;;;;;;;35.83;19.30;;;4.50;93.40;;;;;;4344891;33;20195;-65
2020/12/28 06:31:07;;;;;;;28.80;17.23;;;4.50;93.40;;;;;;4352891;32;20453;-66
2020/12/28 06:33:34;;;;;;;26.57;17.37;;;4.50;93.40;;;;;;4374319;32;20213;-66
2020/12/28 06:36:00;;;;;;;29.47;16.73;;;4.50;93.10;;;;;;4368172;32;20177;-65
2020/12/28 06:38:27;;;;;;;27.67;15.10;;;4.50;93.00;;;;;;4344143;32;20183;-65
2020/12/28 06:40:53;;;;;;;28.90;16.37;;;4.40;92.90;;;;;;4344859;32;20222;-64
2020/12/28 06:43:22;;;;;;;25.07;16.07;;;4.40;93.00;;;;;;4342161;33;20228;-65
2020/12/28 06:45:49;;;;;;;25.00;14.63;;;4.40;93.10;;;;;;4340253;32;20252;-64
2020/12/28 06:48:19;;;;;;;27.53;16.37;;;4.40;93.00;;;;;;4342317;33;20496;-65
2020/12/28 06:50:46;;;;;;;25.10;15.47;;;4.40;93.00;;;;;;4343863;32;20469;-65
2020/12/28 06:53:13;;;;;;;26.37;15.47;;;4.50;93.00;;;;;;4342585;32;20610;-65
2020/12/28 06:55:39;;;;;;;29.17;16.17;;;4.50;93.00;;;;;;4342276;32;20648;-65
2020/12/28 06:58:07;;;;;;;23.07;14.60;;;4.50;92.90;;;;;;4343498;33;20644;-64
2020/12/28 07:00:34;;;;;;;23.30;13.67;;;4.40;92.90;;;;;;4348235;32;20221;-65
2020/12/28 07:03:00;;;;;;;27.03;14.70;;;4.40;93.10;;;;;;4371067;32;20647;-65
2020/12/28 07:05:29;;;;;;;27.57;14.67;;;4.40;93.00;;;;;;4342708;32;20195;-65
2020/12/28 07:07:58;;;;;;;24.03;13.37;;;4.50;93.00;;;;;;4341010;33;20189;-65
2020/12/28 07:10:26;;;;;;;15.90;11.13;;;4.40;92.90;;;;;;4341448;33;20216;-67
2020/12/28 07:12:55;;;;;;;18.30;11.87;;;4.40;92.80;;;;;;4345843;32;20215;-63
2020/12/28 07:15:21;;;;;;;17.80;12.00;;;4.40;92.80;;;;;;4341033;32;20223;-64
2020/12/28 07:17:47;;;;;;;19.07;11.47;;;4.50;92.80;;;;;;4335392;33;20268;-64
2020/12/28 07:20:15;;;;;;;19.73;11.93;;;4.50;92.80;;;;;;4331590;33;20219;-67
2020/12/28 07:22:43;;;;;;;17.77;12.20;;;4.40;92.70;;;;;;4328185;33;20619;-66
2020/12/28 07:25:12;;;;;;;20.67;12.30;;;4.50;92.70;;;;;;4327580;33;20523;-64
2020/12/28 07:27:39;;;;;;;23.70;12.40;;;4.50;92.80;;;;;;4319688;33;20552;-64
2020/12/28 07:30:07;;;;;;;25.40;13.67;;;4.50;92.90;;;;;;4318345;33;20476;-66
2020/12/28 07:32:33;;;;;;;18.47;12.13;;;4.50;93.00;;;;;;4317360;33;20176;-64
2020/12/28 07:35:02;;;;;;;19.47;12.23;;;4.60;93.10;;;;;;4319555;33;20647;-67
2020/12/28 07:37:37;;;;;;;21.47;11.70;;;4.60;93.00;;;;;;4325315;32;20185;-64
2020/12/28 07:40:06;;;;;;;19.27;12.13;;;4.60;92.70;;;;;;4320314;32;20153;-63
2020/12/28 07:42:36;;;;;;;29.60;13.23;;;4.60;92.60;;;;;;4318631;33;20304;-65
2020/12/28 07:45:07;;;;;;;22.17;12.93;;;4.60;92.80;;;;;;4317272;33;20220;-66
2020/12/28 07:47:44;;;;;;;24.23;12.00;;;4.50;92.80;;;;;;4316194;33;20235;-65
2020/12/28 07:50:17;;;;;;;19.73;11.87;;;4.60;92.90;;;;;;4320091;33;20169;-66
2020/12/28 07:52:52;;;;;;;19.77;12.23;;;4.60;92.80;;;;;;4318323;32;20169;-65
2020/12/28 07:55:21;;;;;;;20.80;12.97;;;4.60;92.80;;;;;;4319966;32;20250;-64
2020/12/28 07:58:04;;;;;;;17.37;11.80;;;4.50;92.70;;;;;;4319296;33;20742;-65
2020/12/28 08:00:34;;;;;;;17.87;10.93;;;4.50;92.80;;;;;;4320026;33;20549;-65
2020/12/28 08:03:16;;;;;;;18.70;11.23;;;4.60;92.70;;;;;;4317549;33;20291;-64
2020/12/28 08:05:43;;;;;;;18.67;10.13;;;4.60;92.70;;;;;;4317507;32;20173;-63
2020/12/28 08:08:22;;;;;;;17.30;10.60;;;4.60;92.50;;;;;;4319333;33;20266;-64
2020/12/28 08:10:51;;;;;;;21.87;11.13;;;4.60;92.50;;;;;;4318697;33;20184;-65
2020/12/28 08:13:25;;;;;;;16.33;10.60;;;4.50;92.60;;;;;;4324919;32;20169;-64
2020/12/28 08:15:51;;;;;;;18.30;10.77;;;4.50;92.80;;;;;;4327324;33;20255;-65
2020/12/28 08:18:17;;;;;;;15.30;10.73;;;4.60;92.80;;;;;;4341497;33;20251;-66
2020/12/28 08:20:54;;;;;;;15.90;9.43;;;4.60;92.70;;;;;;4339572;32;20288;-66
2020/12/28 08:23:25;;;;;;;23.77;11.17;;;4.60;92.70;;;;;;4340203;33;20175;-67
2020/12/28 08:25:51;;;;;;;20.93;10.53;;;4.60;92.70;;;;;;4341555;32;20674;-65
2020/12/28 08:28:19;;;;;;;17.17;11.03;;;4.70;92.60;;;;;;4338284;33;20317;-64
2020/12/28 08:30:46;;;;;;;16.40;9.83;;;4.70;92.60;;;;;;4336898;32;20477;-65
2020/12/28 08:33:17;;;;;;;18.07;10.37;;;4.70;92.70;;;;;;4340816;33;20164;-64
2020/12/28 08:35:48;;;;;;;19.17;10.57;;;4.70;92.60;;;;;;4342561;32;20161;-66
2020/12/28 08:38:14;;;;;;;21.57;9.30;;;4.70;92.60;;;;;;4341401;33;20184;-68
2020/12/28 08:40:40;;;;;;;16.47;9.97;;;4.70;92.60;;;;;;4340501;32;20232;-65
2020/12/28 08:43:08;;;;;;;16.03;10.87;;;4.70;92.60;;;;;;4341334;33;20597;-64
2020/12/28 08:45:34;;;;;;;17.70;10.33;;;4.70;92.50;;;;;;4341084;32;20212;-63
2020/12/28 08:48:01;;;;;;;15.87;10.80;;;4.70;92.40;;;;;;4340816;32;20219;-61
2020/12/28 08:50:35;;;;;;;16.90;10.70;;;4.80;92.40;;;;;;4342063;33;20293;-65
2020/12/28 08:53:01;;;;;;;17.30;10.53;;;4.70;92.20;;;;;;4340016;33;20434;-65
2020/12/28 08:55:27;;;;;;;14.00;9.73;;;4.70;92.20;;;;;;4337464;33;20259;-66
2020/12/28 08:57:54;;;;;;;15.30;8.77;;;4.60;92.30;;;;;;4340119;33;20640;-63
2020/12/28 09:00:22;;;;;;;17.00;9.33;;;4.70;92.40;;;;;;4339285;33;20631;-63
2020/12/28 09:02:57;;;;;;;14.10;8.40;;;4.60;92.40;;;;;;4341519;33;20237;-64
2020/12/28 09:05:24;;;;;;;13.60;8.00;;;4.60;92.40;;;;;;4338916;33;20173;-62
2020/12/28 09:07:51;;;;;;;16.00;9.00;;;4.60;92.60;;;;;;4340407;32;20156;-66
2020/12/28 09:10:18;;;;;;;12.83;7.70;;;4.70;92.70;;;;;;4337157;32;20657;-66
2020/12/28 09:12:44;;;;;;;15.70;8.10;;;4.80;92.70;;;;;;4339002;33;20224;-65
2020/12/28 09:15:16;;;;;;;15.57;8.20;;;5.00;92.50;;;;;;4342464;32;20224;-64
2020/12/28 09:17:47;;;;;;;11.23;7.07;;;5.10;92.10;;;;;;4348858;33;20164;-64
2020/12/28 09:20:18;;;;;;;11.50;7.47;;;5.10;91.90;;;;;;4343041;32;20456;-63
2020/12/28 09:22:45;;;;;;;10.73;6.67;;;5.20;91.70;;;;;;4352148;33;20180;-64
2020/12/28 09:25:22;;;;;;;14.13;7.30;;;5.30;91.60;;;;;;4349009;33;20195;-65
2020/12/28 09:27:50;;;;;;;10.17;6.40;;;5.30;91.60;;;;;;4345693;33;20175;-67
2020/12/28 09:30:16;;;;;;;15.63;7.77;;;5.40;91.50;;;;;;4343217;33;20228;-63
2020/12/28 09:32:43;;;;;;;9.77;6.03;;;5.40;91.40;;;;;;4345716;33;20558;-63
2020/12/28 09:35:12;;;;;;;13.77;6.50;;;5.40;91.20;;;;;;4350258;33;20187;-66
2020/12/28 09:37:38;;;;;;;9.47;6.33;;;5.30;91.00;;;;;;4349824;33;20212;-64
2020/12/28 09:40:11;;;;;;;15.53;6.50;;;5.40;91.30;;;;;;4350411;33;20208;-66
2020/12/28 09:42:38;;;;;;;9.30;5.97;;;5.20;91.30;;;;;;4350907;32;20176;-64
2020/12/28 09:45:35;;;;;;;9.73;5.57;;;5.10;91.20;;;;;;4348829;33;20172;-65
2020/12/28 09:47:52;;;;;;;13.77;5.70;;;5.10;91.30;;;;;;4341874;33;20181;-64
2020/12/28 09:50:18;;;;;;;10.50;5.10;;;5.00;91.60;;;;;;4353293;33;20280;-64
2020/12/28 09:52:44;;;;;;;9.80;5.97;;;5.00;91.70;;;;;;4344855;33;20184;-63
2020/12/28 09:55:12;;;;;;;13.00;5.80;;;4.90;92.10;;;;;;4343799;33;20540;-63
2020/12/28 09:57:44;;;;;;;8.57;4.83;;;4.90;92.00;;;;;;4335994;33;20253;-63
2020/12/28 10:00:14;;;;;;;13.10;5.50;;;4.90;91.70;;;;;;4345179;33;20233;-67
2020/12/28 10:02:42;;;;;;;13.27;5.20;;;4.80;91.80;;;;;;4341254;33;20243;-65
2020/12/28 10:05:09;;;;;;;9.13;5.30;;;4.80;92.00;;;;;;4342169;33;20238;-64
2020/12/28 10:07:41;;;;;;;10.80;5.17;;;4.80;91.90;;;;;;4341915;33;20287;-64
2020/12/28 10:10:16;;;;;;;8.33;4.30;;;4.80;91.70;;;;;;4344674;32;20290;-62
2020/12/28 10:12:49;;;;;;;8.37;4.77;;;4.90;91.50;;;;;;4343249;33;20153;-64
2020/12/28 10:15:25;;;;;;;9.40;5.27;;;4.90;91.40;;;;;;4341360;33;20173;-63
2020/12/28 10:18:12;;;;;;;9.43;5.27;;;5.00;91.60;;;;;;4327722;33;20324;-63
2020/12/28 10:20:40;;;;;;;7.80;4.10;;;5.10;91.70;;;;;;4329105;33;20601;-63
2020/12/28 10:23:10;;;;;;;9.37;4.47;;;5.00;91.40;;;;;;4325800;33;20157;-66
2020/12/28 10:25:44;;;;;;;9.33;4.07;;;5.00;91.30;;;;;;4327593;33;20162;-64
2020/12/28 10:28:11;;;;;;;8.20;4.37;;;5.00;91.20;;;;;;4319574;33;20203;-67
2020/12/28 10:30:41;;;;;;;6.50;4.30;;;5.10;91.30;;;;;;4322250;33;20199;-68
2020/12/28 10:33:12;;;;;;;6.00;3.50;;;5.20;90.70;;;;;;4321446;33;20299;-65
2020/12/28 10:35:39;;;;;;;9.70;4.03;;;5.10;90.50;;;;;;4324833;33;20554;-62
2020/12/28 10:38:15;;;;;;;14.10;4.10;;;5.10;90.50;;;;;;4329114;33;20197;-63
2020/12/28 10:40:42;;;;;;;6.93;3.77;;;5.10;90.30;;;;;;4324650;33;20281;-66
2020/12/28 10:43:08;;;;;;;9.77;4.03;;;5.00;90.80;;;;;;4328755;33;20315;-67
2020/12/28 10:45:40;;;;;;;12.93;3.97;;;4.90;90.60;;;;;;4328006;33;20250;-67
2020/12/28 10:48:13;;;;;;;19.73;4.73;;;4.90;90.80;;;;;;4326579;33;20177;-65
2020/12/28 10:50:44;;;;;;;5.80;3.87;;;4.90;91.00;;;;;;4328067;33;20232;-65
2020/12/28 10:53:11;;;;;;;13.10;4.57;;;4.90;90.80;;;;;;4328317;33;20181;-64
2020/12/28 10:55:41;;;;;;;9.73;4.37;;;4.90;90.80;;;;;;4333864;33;20244;-68
2020/12/28 10:58:19;;;;;;;4.80;3.20;;;4.80;90.60;;;;;;4327506;33;20230;-64
2020/12/28 11:00:56;;;;;;;7.10;3.90;;;4.70;90.70;;;;;;4323513;33;20500;-63
2020/12/28 11:03:35;;;;;;;5.83;3.43;;;4.70;91.10;;;;;;4330188;32;20161;-64
2020/12/28 11:09:17;;;;;;;9.23;3.90;;;4.70;91.20;;;;;;4279058;32;20230;-63
2020/12/28 11:11:59;;;;;;;5.97;3.50;;;4.70;91.20;;;;;;4279240;32;21081;-66
2020/12/28 11:14:31;;;;;;;6.27;3.20;;;4.70;91.20;;;;;;4283833;33;20174;-67
2020/12/28 11:17:00;;;;;;;6.97;3.37;;;4.70;91.00;;;;;;4296418;33;20186;-64
2020/12/28 11:22:26;;;;;;;8.50;3.50;;;4.80;90.80;;;;;;4324647;33;20169;-68
2020/12/28 11:24:53;;;;;;;12.00;4.20;;;4.90;90.60;;;;;;4321067;33;20209;-66
2020/12/28 11:27:22;;;;;;;5.67;3.23;;;4.90;90.80;;;;;;4322157;33;20775;-64
2020/12/28 11:29:52;;;;;;;8.13;5.10;;;4.80;90.70;;;;;;4321463;33;20251;-63
2020/12/28 11:32:41;;;;;;;6.03;3.20;;;4.80;90.70;;;;;;4322993;33;20247;-64
2020/12/28 11:35:17;;;;;;;6.20;2.87;;;4.80;90.70;;;;;;4322890;33;20373;-64
2020/12/28 11:37:49;;;;;;;3.87;2.63;;;4.80;90.30;;;;;;4324260;33;20264;-64
2020/12/28 11:40:23;;;;;;;4.60;2.97;;;4.80;90.40;;;;;;4357738;32;20241;-68
2020/12/28 11:42:49;;;;;;;5.50;3.40;;;4.70;90.80;;;;;;4368446;32;20372;-66
2020/12/28 11:45:16;;;;;;;8.40;3.50;;;4.70;91.20;;;;;;4373335;32;20188;-64
2020/12/28 11:47:43;;;;;;;7.17;4.00;;;4.70;91.20;;;;;;4369045;32;20186;-67
2020/12/28 11:50:09;;;;;;;5.07;3.67;;;4.70;91.00;;;;;;4371867;32;20216;-64
2020/12/28 11:52:35;;;;;;;8.27;3.80;;;4.70;91.10;;;;;;4370006;32;20196;-70
2020/12/28 11:55:02;;;;;;;6.47;4.10;;;4.70;91.20;;;;;;4368850;32;20187;-67
2020/12/28 11:57:30;;;;;;;4.23;3.57;;;4.60;91.30;;;;;;4364687;32;20313;-64
2020/12/28 12:00:01;;;;;;;8.53;3.63;;;4.70;91.30;;;;;;4403357;32;20285;-62
2020/12/28 12:02:29;;;;;;;8.50;3.77;;;4.80;91.40;;;;;;4340963;32;20196;-66
2020/12/28 12:04:56;;;;;;;11.30;3.93;;;4.90;91.20;;;;;;4339532;32;20511;-66
2020/12/28 12:07:28;;;;;;;7.70;4.00;;;5.10;91.20;;;;;;4343837;33;20247;-66
2020/12/28 12:09:54;;;;;;;8.37;4.07;;;5.10;91.20;;;;;;4334980;33;20355;-64
2020/12/28 12:12:20;;;;;;;6.63;4.10;;;5.10;91.20;;;;;;4338374;33;20225;-64
2020/12/28 12:14:48;;;;;;;6.30;3.90;;;5.20;90.80;;;;;;4339329;33;20169;-66
2020/12/28 12:17:18;;;;;;;9.27;4.30;;;5.20;90.30;;;;;;4339007;33;20220;-64
2020/12/28 12:19:45;;;;;;;10.37;5.63;;;5.30;90.60;;;;;;4335907;33;20317;-64
2020/12/28 12:22:14;;;;;;;8.53;4.43;;;5.30;90.30;;;;;;4340502;32;20208;-64
2020/12/28 12:24:42;;;;;;;10.93;4.70;;;5.30;90.20;;;;;;4340357;33;20266;-64
2020/12/28 12:27:11;;;;;;;7.77;4.53;;;5.20;90.10;;;;;;4341434;33;20238;-63
2020/12/28 12:29:39;;;;;;;5.37;4.87;;;5.20;90.50;;;;;;4338736;32;20254;-63
2020/12/28 12:32:05;;;;;;;10.20;5.53;;;5.20;90.50;;;;;;4339392;32;20188;-64
2020/12/28 12:34:32;;;;;;;9.10;5.17;;;5.20;90.60;;;;;;4340118;33;20219;-64
2020/12/28 12:36:59;;;;;;;8.70;4.63;;;5.20;90.50;;;;;;4340002;33;20256;-67
2020/12/28 12:39:25;;;;;;;12.33;5.10;;;5.30;90.50;;;;;;4345340;32;20179;-64
2020/12/28 12:42:10;;;;;;;7.17;3.80;;;5.30;90.60;;;;;;4367175;32;20173;-67
2020/12/28 12:44:37;;;;;;;8.70;4.20;;;5.30;90.60;;;;;;4340728;33;20161;-66
2020/12/28 12:47:08;;;;;;;8.53;3.70;;;5.30;90.40;;;;;;4341910;32;20157;-64
2020/12/28 12:49:34;;;;;;;6.17;4.57;;;5.30;90.50;;;;;;4341750;32;20275;-65
2020/12/28 12:52:15;;;;;;;9.00;5.47;;;5.30;90.60;;;;;;4342270;33;20176;-64
2020/12/28 12:54:44;;;;;;;5.83;4.53;;;5.40;90.30;;;;;;4339754;33;20480;-66
2020/12/28 12:57:17;;;;;;;6.60;4.87;;;5.40;90.30;;;;;;4341916;32;20184;-64